createdAt,value
2022-08-24T00:00:12.166Z,710.58
2022-08-24T00:01:12.158Z,710.80
2022-08-24T00:02:12.427Z,711.00
2022-08-24T00:03:12.338Z,710.59
2022-08-24T00:04:13.672Z,710.81
2022-08-24T00:05:14.753Z,710.81
2022-08-24T00:06:12.104Z,710.73
2022-08-24T00:07:21.362Z,710.79
2022-08-24T00:08:12.083Z,710.86
2022-08-24T00:09:12.092Z,710.57
2022-08-24T00:10:12.061Z,710.66
2022-08-24T00:11:12.044Z,710.46
2022-08-24T00:12:12.214Z,710.70
2022-08-24T00:13:12.021Z,710.85
2022-08-24T00:14:12.033Z,710.93
2022-08-24T00:15:11.999Z,711.38
2022-08-24T00:16:12.113Z,711.80
2022-08-24T00:17:11.976Z,711.64
2022-08-24T00:18:11.994Z,711.70
2022-08-24T00:19:11.953Z,712.09
2022-08-24T00:20:11.948Z,712.20
2022-08-24T00:21:11.946Z,712.13
2022-08-24T00:22:11.922Z,712.00
2022-08-24T00:23:11.936Z,711.97
2022-08-24T00:24:11.907Z,711.77
2022-08-24T00:25:11.889Z,712.21
2022-08-24T00:26:11.881Z,712.25
2022-08-24T00:27:11.865Z,712.61
2022-08-24T00:28:11.887Z,713.09
2022-08-24T00:29:11.852Z,713.44
2022-08-24T00:30:11.842Z,713.81
2022-08-24T00:31:11.826Z,713.64
2022-08-24T00:32:11.817Z,713.85
2022-08-24T00:33:11.817Z,714.09
2022-08-24T00:34:11.792Z,714.44
2022-08-24T00:35:11.815Z,714.61
2022-08-24T00:36:11.763Z,714.44
2022-08-24T00:37:11.755Z,714.94
2022-08-24T00:38:11.745Z,714.54
2022-08-24T00:39:11.740Z,714.13
2022-08-24T00:40:11.854Z,713.61
2022-08-24T00:41:11.714Z,714.24
2022-08-24T00:42:11.698Z,714.12
2022-08-24T00:43:11.691Z,714.19
2022-08-24T00:44:11.688Z,714.69
2022-08-24T00:45:11.684Z,714.63
2022-08-24T00:47:20.625Z,714.94
2022-08-24T00:48:21.595Z,715.77
2022-08-24T00:49:21.592Z,715.78
2022-08-24T00:50:21.613Z,715.27
2022-08-24T00:51:21.564Z,716.20
2022-08-24T00:52:21.562Z,716.37
2022-08-24T00:53:21.542Z,716.43
2022-08-24T00:54:21.536Z,717.20
2022-08-24T00:55:21.550Z,717.23
2022-08-24T00:56:21.515Z,717.67
2022-08-24T00:57:21.498Z,717.53
2022-08-24T00:58:21.748Z,718.15
2022-08-24T00:59:21.490Z,718.09
2022-08-24T01:00:21.498Z,718.01
2022-08-24T01:01:21.492Z,718.08
2022-08-24T01:02:21.491Z,718.41
2022-08-24T01:03:21.433Z,718.30
2022-08-24T01:04:21.430Z,719.22
2022-08-24T01:05:21.442Z,719.24
2022-08-24T01:06:21.418Z,719.04
2022-08-24T01:07:21.394Z,719.43
2022-08-24T01:08:21.390Z,719.20
2022-08-24T01:09:21.372Z,719.31
2022-08-24T01:10:21.395Z,719.71
2022-08-24T01:11:21.355Z,719.89
2022-08-24T01:12:21.341Z,720.03
2022-08-24T01:13:21.341Z,720.17
2022-08-24T01:14:21.319Z,720.69
2022-08-24T01:15:21.338Z,721.04
2022-08-24T01:16:21.343Z,721.96
2022-08-24T01:17:21.287Z,722.06
2022-08-24T01:18:21.277Z,722.21
2022-08-24T01:19:21.266Z,722.75
2022-08-24T01:20:21.263Z,722.51
2022-08-24T01:21:21.272Z,723.01
2022-08-24T01:22:21.235Z,723.08
2022-08-24T01:23:21.218Z,722.99
2022-08-24T01:24:21.231Z,723.35
2022-08-24T01:25:21.206Z,722.97
2022-08-24T01:26:21.204Z,723.35
2022-08-24T01:27:27.793Z,723.13
2022-08-24T01:28:27.191Z,723.58
2022-08-24T01:29:21.157Z,723.01
2022-08-24T01:30:21.589Z,722.52
2022-08-24T01:31:21.226Z,722.51
2022-08-24T01:32:21.124Z,722.17
2022-08-24T01:33:21.109Z,721.80
2022-08-24T01:34:21.103Z,722.03
2022-08-24T01:35:21.123Z,722.11
2022-08-24T01:36:21.081Z,721.83
2022-08-24T01:37:21.072Z,722.04
2022-08-24T01:38:21.057Z,721.79
2022-08-24T01:39:21.048Z,721.70
2022-08-24T01:40:21.155Z,721.66
2022-08-24T01:41:21.038Z,721.41
2022-08-24T01:42:21.017Z,721.41
2022-08-24T01:43:21.000Z,721.30
2022-08-24T01:44:20.989Z,721.52
2022-08-24T01:45:21.013Z,721.53
2022-08-24T01:46:21.038Z,721.75
2022-08-24T01:47:20.958Z,721.94
2022-08-24T01:48:23.029Z,722.26
2022-08-24T01:49:20.934Z,722.25
2022-08-24T01:50:20.942Z,722.64
2022-08-24T01:51:20.951Z,722.37
2022-08-24T01:52:20.902Z,723.18
2022-08-24T01:53:20.896Z,722.80
2022-08-24T01:54:20.886Z,723.18
2022-08-24T01:55:22.615Z,723.41
2022-08-24T01:56:20.876Z,724.31
2022-08-24T01:57:20.892Z,723.93
2022-08-24T01:58:20.859Z,724.03
2022-08-24T01:59:20.835Z,724.49
2022-08-24T02:00:20.827Z,724.64
2022-08-24T02:01:20.855Z,725.09
2022-08-24T02:02:20.825Z,725.44
2022-08-24T02:03:20.855Z,726.26
2022-08-24T02:04:20.772Z,725.87
2022-08-24T02:05:20.765Z,726.50
2022-08-24T02:06:20.755Z,726.94
2022-08-24T02:07:20.768Z,727.16
2022-08-24T02:08:20.841Z,726.81
2022-08-24T02:09:20.719Z,727.16
2022-08-24T02:10:20.714Z,727.11
2022-08-24T02:11:20.722Z,727.66
2022-08-24T02:12:20.716Z,727.24
2022-08-24T02:13:20.676Z,727.44
2022-08-24T02:14:20.664Z,726.94
2022-08-24T02:15:20.652Z,727.56
2022-08-24T02:16:20.715Z,727.86
2022-08-24T02:17:20.668Z,728.17
2022-08-24T02:18:20.631Z,728.90
2022-08-24T02:19:20.613Z,728.30
2022-08-24T02:20:20.596Z,728.51
2022-08-24T02:21:20.594Z,728.86
2022-08-24T02:22:20.616Z,728.93
2022-08-24T02:23:20.581Z,729.44
2022-08-24T02:24:20.564Z,729.22
2022-08-24T02:25:20.563Z,729.43
2022-08-24T02:26:20.536Z,729.40
2022-08-24T02:27:20.547Z,729.78
2022-08-24T02:28:20.516Z,729.59
2022-08-24T02:29:20.498Z,729.63
2022-08-24T02:30:20.498Z,729.41
2022-08-24T02:31:20.531Z,728.81
2022-08-24T02:32:20.495Z,728.24
2022-08-24T02:33:20.458Z,727.93
2022-08-24T02:34:20.444Z,727.36
2022-08-24T02:35:20.437Z,727.38
2022-08-24T02:36:25.951Z,727.45
2022-08-24T02:37:20.440Z,727.87
2022-08-24T02:38:20.405Z,727.54
2022-08-24T02:39:20.390Z,727.66
2022-08-24T02:40:20.417Z,727.64
2022-08-24T02:41:20.367Z,727.74
2022-08-24T02:42:20.394Z,727.94
2022-08-24T02:43:20.353Z,727.82
2022-08-24T02:44:20.345Z,728.32
2022-08-24T02:45:20.322Z,728.41
2022-08-24T02:46:20.359Z,728.44
2022-08-24T02:48:29.291Z,728.76
2022-08-24T02:49:30.303Z,728.45
2022-08-24T02:50:30.240Z,728.56
2022-08-24T02:51:30.235Z,728.90
2022-08-24T02:52:30.217Z,728.60
2022-08-24T02:53:30.235Z,728.61
2022-08-24T02:54:30.198Z,728.65
2022-08-24T02:55:30.191Z,728.68
2022-08-24T02:56:30.177Z,728.23
2022-08-24T02:57:30.166Z,728.34
2022-08-24T02:58:30.177Z,728.49
2022-08-24T02:59:30.145Z,728.21
2022-08-24T03:00:30.132Z,728.32
2022-08-24T03:01:30.313Z,728.01
2022-08-24T03:02:30.214Z,728.73
2022-08-24T03:03:30.110Z,728.49
2022-08-24T03:04:30.094Z,728.68
2022-08-24T03:05:30.073Z,728.80
2022-08-24T03:06:30.062Z,728.72
2022-08-24T03:07:30.078Z,728.56
2022-08-24T03:08:30.055Z,728.65
2022-08-24T03:09:30.034Z,728.59
2022-08-24T03:10:30.019Z,728.66
2022-08-24T03:11:30.010Z,729.07
2022-08-24T03:12:29.999Z,729.35
2022-08-24T03:13:30.003Z,729.75
2022-08-24T03:14:29.976Z,729.56
2022-08-24T03:15:30.063Z,730.03
2022-08-24T03:16:29.963Z,730.16
2022-08-24T03:17:29.971Z,730.18
2022-08-24T03:18:29.930Z,729.97
2022-08-24T03:19:29.925Z,730.38
2022-08-24T03:20:29.913Z,730.70
2022-08-24T03:21:29.893Z,729.89
2022-08-24T03:22:29.895Z,729.97
2022-08-24T03:23:31.986Z,729.68
2022-08-24T03:24:29.880Z,729.81
2022-08-24T03:25:29.849Z,729.55
2022-08-24T03:26:29.845Z,729.63
2022-08-24T03:27:29.826Z,729.78
2022-08-24T03:28:29.826Z,729.61
2022-08-24T03:29:29.845Z,729.73
2022-08-24T03:30:29.880Z,729.78
2022-08-24T03:31:29.800Z,730.11
2022-08-24T03:32:29.780Z,730.13
2022-08-24T03:33:29.765Z,730.14
2022-08-24T03:34:29.779Z,730.49
2022-08-24T03:35:29.750Z,730.33
2022-08-24T03:36:29.725Z,730.57
2022-08-24T03:37:29.726Z,731.06
2022-08-24T03:38:29.706Z,731.10
2022-08-24T03:39:29.710Z,731.13
2022-08-24T03:40:29.723Z,731.63
2022-08-24T03:41:29.731Z,731.88
2022-08-24T03:42:29.664Z,731.53
2022-08-24T03:43:29.655Z,732.23
2022-08-24T03:44:29.638Z,731.93
2022-08-24T03:45:29.632Z,732.21
2022-08-24T03:46:29.642Z,731.70
2022-08-24T03:47:29.611Z,731.73
2022-08-24T03:48:29.593Z,731.63
2022-08-24T03:49:29.590Z,731.56
2022-08-24T03:50:29.570Z,731.37
2022-08-24T03:51:30.342Z,731.84
2022-08-24T03:52:32.179Z,731.87
2022-08-24T03:53:29.537Z,732.19
2022-08-24T03:54:29.524Z,731.95
2022-08-24T03:55:29.514Z,732.12
2022-08-24T03:56:29.529Z,732.58
2022-08-24T03:57:29.497Z,732.48
2022-08-24T03:58:29.481Z,732.62
2022-08-24T03:59:29.474Z,732.62
2022-08-24T04:00:29.463Z,732.52
2022-08-24T04:01:29.547Z,732.51
2022-08-24T04:02:32.922Z,732.81
2022-08-24T04:03:29.429Z,732.78
2022-08-24T04:04:29.428Z,732.88
2022-08-24T04:05:29.401Z,732.88
2022-08-24T04:06:29.423Z,732.70
2022-08-24T04:07:29.394Z,732.58
2022-08-24T04:08:29.370Z,732.69
2022-08-24T04:09:29.430Z,732.81
2022-08-24T04:10:29.351Z,733.56
2022-08-24T04:11:29.365Z,733.99
2022-08-24T04:12:29.325Z,734.43
2022-08-24T04:13:29.320Z,734.64
2022-08-24T04:14:29.310Z,735.40
2022-08-24T04:15:29.303Z,735.69
2022-08-24T04:16:29.379Z,735.73
2022-08-24T04:17:29.274Z,736.40
2022-08-24T04:18:29.757Z,736.91
2022-08-24T04:19:29.252Z,737.36
2022-08-24T04:20:29.236Z,737.93
2022-08-24T04:21:29.263Z,738.40
2022-08-24T04:22:29.216Z,738.42
2022-08-24T04:23:46.569Z,738.65
2022-08-24T04:24:29.196Z,738.51
2022-08-24T04:25:29.181Z,737.50
2022-08-24T04:26:44.711Z,736.51
2022-08-24T04:27:29.160Z,736.38
2022-08-24T04:28:29.151Z,736.06
2022-08-24T04:29:29.141Z,735.85
2022-08-24T04:30:29.141Z,735.37
2022-08-24T04:31:29.161Z,735.04
2022-08-24T04:32:29.121Z,735.17
2022-08-24T04:33:29.091Z,734.60
2022-08-24T04:34:29.085Z,734.54
2022-08-24T04:35:29.072Z,734.46
2022-08-24T04:36:29.090Z,734.57
2022-08-24T04:37:29.299Z,734.64
2022-08-24T04:38:29.033Z,734.96
2022-08-24T04:39:29.029Z,735.43
2022-08-24T04:40:29.149Z,735.76
2022-08-24T04:41:31.362Z,736.19
2022-08-24T04:42:28.999Z,736.56
2022-08-24T04:43:28.978Z,736.30
2022-08-24T04:44:28.969Z,736.48
2022-08-24T04:45:29.018Z,736.72
2022-08-24T04:46:28.949Z,736.76
2022-08-24T04:47:28.944Z,737.15
2022-08-24T04:49:37.885Z,737.33
2022-08-24T04:50:38.904Z,736.90
2022-08-24T04:51:38.863Z,737.09
2022-08-24T04:52:38.852Z,736.98
2022-08-24T04:53:38.841Z,737.10
2022-08-24T04:54:38.829Z,737.25
2022-08-24T04:55:38.846Z,737.38
2022-08-24T04:56:38.821Z,737.50
2022-08-24T04:57:38.794Z,737.57
2022-08-24T04:58:38.789Z,738.03
2022-08-24T04:59:38.774Z,738.19
2022-08-24T05:00:38.822Z,738.67
2022-08-24T05:01:38.759Z,739.14
2022-08-24T05:02:43.017Z,739.44
2022-08-24T05:03:38.733Z,739.64
2022-08-24T05:04:38.719Z,739.48
2022-08-24T05:05:38.734Z,739.31
2022-08-24T05:06:38.700Z,738.40
2022-08-24T05:07:38.689Z,738.32
2022-08-24T05:08:38.680Z,738.20
2022-08-24T05:09:38.675Z,737.73
2022-08-24T05:10:38.680Z,737.68
2022-08-24T05:11:38.647Z,737.57
2022-08-24T05:12:38.646Z,737.43
2022-08-24T05:13:38.623Z,737.07
2022-08-24T05:14:38.609Z,737.04
2022-08-24T05:15:38.629Z,736.68
2022-08-24T05:16:38.658Z,736.27
2022-08-24T05:17:38.581Z,736.41
2022-08-24T05:18:38.577Z,736.19
2022-08-24T05:19:38.559Z,736.05
2022-08-24T05:20:38.569Z,735.85
2022-08-24T05:21:40.000Z,735.87
2022-08-24T05:22:38.520Z,735.75
2022-08-24T05:23:38.514Z,736.06
2022-08-24T05:24:38.521Z,735.31
2022-08-24T05:25:38.501Z,735.17
2022-08-24T05:26:38.486Z,735.12
2022-08-24T05:27:38.510Z,734.92
2022-08-24T05:28:38.469Z,734.60
2022-08-24T05:29:38.475Z,734.46
2022-08-24T05:30:42.494Z,734.15
2022-08-24T05:31:38.556Z,734.17
2022-08-24T05:32:38.438Z,733.76
2022-08-24T05:33:38.419Z,733.53
2022-08-24T05:34:38.398Z,733.48
2022-08-24T05:35:38.380Z,733.01
2022-08-24T05:36:38.391Z,732.80
2022-08-24T05:37:38.375Z,732.43
2022-08-24T05:38:38.381Z,732.13
2022-08-24T05:39:38.354Z,731.86
2022-08-24T05:40:38.327Z,731.41
2022-08-24T05:41:38.330Z,731.47
2022-08-24T05:42:38.384Z,731.05
2022-08-24T05:43:38.315Z,730.45
2022-08-24T05:44:38.334Z,730.41
2022-08-24T05:45:38.303Z,729.81
2022-08-24T05:46:38.369Z,729.55
2022-08-24T05:47:38.490Z,729.25
2022-08-24T05:48:38.270Z,728.75
2022-08-24T05:49:41.376Z,728.37
2022-08-24T05:50:38.227Z,727.93
2022-08-24T05:51:38.223Z,727.53
2022-08-24T05:52:38.195Z,727.30
2022-08-24T05:53:38.187Z,726.45
2022-08-24T05:54:38.187Z,725.85
2022-08-24T05:55:38.167Z,725.36
2022-08-24T05:56:38.198Z,725.13
2022-08-24T05:57:38.161Z,724.79
2022-08-24T05:58:38.162Z,724.18
2022-08-24T05:59:38.174Z,723.67
2022-08-24T06:00:38.194Z,723.09
2022-08-24T06:01:41.186Z,722.49
2022-08-24T06:02:38.211Z,721.88
2022-08-24T06:03:38.157Z,721.22
2022-08-24T06:04:38.114Z,720.60
2022-08-24T06:05:38.756Z,719.78
2022-08-24T06:22:51.799Z,719.95
2022-08-24T06:23:49.721Z,720.44
2022-08-24T06:30:06.728Z,718.59
2022-08-24T06:34:18.223Z,715.88
2022-08-24T06:35:11.211Z,715.35
2022-08-24T06:35:11.392Z,718.33
2022-08-24T06:35:47.756Z,715.12
2022-08-24T06:36:47.229Z,715.08
2022-08-24T06:37:38.641Z,716.15
2022-08-24T06:37:44.784Z,716.24
2022-08-24T06:37:47.215Z,714.21
2022-08-24T06:38:47.225Z,713.32
2022-08-24T06:39:47.365Z,712.79
2022-08-24T06:40:52.198Z,712.21
2022-08-24T06:41:47.147Z,711.43
2022-08-24T06:42:47.188Z,710.70
2022-08-24T06:43:47.174Z,710.12
2022-08-24T06:44:47.133Z,709.84
2022-08-24T06:45:47.103Z,708.97
2022-08-24T06:46:47.137Z,708.55
2022-08-24T06:47:47.084Z,709.23
2022-08-24T06:48:47.105Z,709.60
2022-08-24T06:49:47.063Z,710.75
2022-08-24T06:50:47.069Z,709.67
2022-08-24T06:51:50.537Z,709.15
2022-08-24T06:52:47.054Z,708.57
2022-08-24T06:53:47.103Z,707.86
2022-08-24T06:54:47.147Z,706.83
2022-08-24T06:55:47.009Z,706.27
2022-08-24T06:56:46.984Z,705.49
2022-08-24T06:57:51.683Z,706.02
2022-08-24T06:58:46.965Z,705.91
2022-08-24T06:59:46.982Z,705.54
2022-08-24T07:00:46.943Z,704.63
2022-08-24T07:01:47.037Z,703.99
2022-08-24T07:02:47.015Z,703.43
2022-08-24T07:03:54.286Z,704.11
2022-08-24T07:04:46.921Z,704.41
2022-08-24T07:05:47.001Z,703.67
2022-08-24T07:06:47.085Z,702.95
2022-08-24T07:07:46.885Z,702.14
2022-08-24T07:08:46.883Z,701.93
2022-08-24T07:09:46.865Z,701.08
2022-08-24T07:10:46.834Z,700.78
2022-08-24T07:11:46.823Z,700.30
2022-08-24T07:12:47.189Z,700.01
2022-08-24T07:13:46.793Z,700.30
2022-08-24T07:14:46.832Z,699.95
2022-08-24T07:24:51.276Z,696.92
2022-08-24T07:26:21.365Z,698.03
2022-08-24T07:26:21.749Z,695.82
2022-08-24T07:26:46.809Z,695.74
2022-08-24T07:26:58.064Z,695.91
2022-08-24T07:27:45.122Z,698.54
2022-08-24T07:27:46.649Z,696.94
2022-08-24T07:28:46.669Z,697.27
2022-08-24T07:29:53.031Z,698.71
2022-08-24T07:30:46.694Z,697.88
2022-08-24T07:31:46.743Z,696.79
2022-08-24T07:32:46.604Z,696.56
2022-08-24T07:33:46.632Z,696.22
2022-08-24T07:34:46.611Z,695.87
2022-08-24T07:35:46.563Z,695.25
2022-08-24T07:36:46.593Z,694.89
2022-08-24T07:37:46.551Z,694.73
2022-08-24T07:38:46.629Z,694.74
2022-08-24T07:39:46.672Z,694.06
2022-08-24T07:41:09.236Z,693.96
2022-08-24T07:42:11.070Z,692.97
2022-08-24T07:42:46.513Z,692.51
2022-08-24T07:43:46.499Z,693.19
2022-08-24T07:44:46.493Z,694.08
2022-08-24T07:45:46.450Z,694.13
2022-08-24T07:46:46.582Z,693.96
2022-08-24T07:47:54.682Z,693.39
2022-08-24T07:48:46.446Z,692.75
2022-08-24T07:49:46.480Z,692.37
2022-08-24T07:50:46.402Z,692.31
2022-08-24T07:51:46.836Z,692.65
2022-08-24T07:52:46.376Z,692.21
2022-08-24T07:53:54.390Z,691.62
2022-08-24T07:54:46.394Z,690.58
2022-08-24T07:55:46.451Z,690.93
2022-08-24T07:56:46.384Z,690.45
2022-08-24T08:00:01.871Z,690.57
2022-08-24T08:00:46.297Z,690.39
2022-08-24T08:00:53.729Z,691.00
2022-08-24T08:01:42.962Z,690.64
2022-08-24T08:01:46.388Z,689.19
2022-08-24T08:02:46.327Z,688.55
2022-08-24T08:03:46.256Z,688.59
2022-08-24T08:04:46.251Z,688.24
2022-08-24T08:05:46.246Z,687.53
2022-08-24T08:06:46.380Z,686.71
2022-08-24T08:07:48.781Z,686.94
2022-08-24T08:08:46.210Z,686.83
2022-08-24T08:09:46.273Z,686.41
2022-08-24T08:10:46.191Z,686.23
2022-08-24T08:11:46.197Z,686.83
2022-08-24T08:12:46.191Z,686.72
2022-08-24T08:13:46.164Z,686.23
2022-08-24T08:15:59.402Z,687.03
2022-08-24T08:16:56.191Z,686.66
2022-08-24T08:17:56.342Z,686.04
2022-08-24T08:19:11.611Z,685.09
2022-08-24T08:19:56.140Z,684.04
2022-08-24T08:20:56.147Z,683.63
2022-08-24T08:21:56.118Z,682.62
2022-08-24T08:22:56.084Z,682.28
2022-08-24T08:23:56.077Z,681.58
2022-08-24T08:24:56.121Z,681.44
2022-08-24T08:25:56.139Z,682.09
2022-08-24T08:26:56.056Z,682.13
2022-08-24T08:28:01.058Z,681.85
2022-08-24T08:28:56.030Z,682.75
2022-08-24T08:29:56.490Z,682.74
2022-08-24T08:30:56.029Z,681.91
2022-08-24T08:31:56.047Z,681.24
2022-08-24T08:32:55.982Z,680.31
2022-08-24T08:33:55.961Z,679.82
2022-08-24T08:35:00.170Z,679.09
2022-08-24T08:35:55.941Z,679.00
2022-08-24T08:36:56.007Z,678.89
2022-08-24T08:37:55.944Z,678.75
2022-08-24T08:38:55.977Z,678.59
2022-08-24T08:39:56.044Z,677.71
2022-08-24T08:40:55.924Z,676.71
2022-08-24T08:41:55.992Z,675.76
2022-08-24T08:42:56.747Z,675.49
2022-08-24T08:43:55.866Z,674.82
2022-08-24T08:44:55.857Z,674.45
2022-08-24T08:45:55.920Z,674.51
2022-08-24T08:46:55.863Z,675.00
2022-08-24T08:47:55.854Z,675.44
2022-08-24T08:48:55.864Z,676.71
2022-08-24T08:49:55.799Z,676.31
2022-08-24T08:50:56.135Z,675.93
2022-08-24T08:51:56.007Z,675.83
2022-08-24T08:52:55.845Z,675.21
2022-08-24T08:53:55.786Z,675.10
2022-08-24T08:54:55.754Z,674.91
2022-08-24T08:55:55.738Z,674.70
2022-08-24T08:56:59.335Z,674.05
2022-08-24T09:01:07.202Z,673.21
2022-08-24T09:04:17.773Z,673.75
2022-08-24T09:06:44.907Z,673.21
2022-08-24T09:07:38.955Z,672.51
2022-08-24T09:16:10.668Z,670.67
2022-08-24T09:16:10.856Z,670.05
2022-08-24T09:16:11.222Z,671.08
2022-08-24T09:16:24.041Z,670.73
2022-08-24T09:16:36.245Z,670.81
2022-08-24T09:16:58.803Z,673.82
2022-08-24T09:17:07.558Z,669.88
2022-08-24T09:18:05.156Z,669.51
2022-08-24T09:19:04.951Z,668.87
2022-08-24T09:20:04.969Z,669.10
2022-08-24T09:21:04.947Z,668.83
2022-08-24T09:22:04.989Z,669.52
2022-08-24T09:23:04.919Z,669.67
2022-08-24T09:24:04.893Z,669.76
2022-08-24T09:25:04.913Z,669.48
2022-08-24T09:26:04.865Z,668.95
2022-08-24T09:27:04.859Z,669.01
2022-08-24T09:28:05.163Z,669.23
2022-08-24T09:29:04.864Z,670.05
2022-08-24T09:30:04.829Z,670.54
2022-08-24T09:31:04.988Z,671.26
2022-08-24T09:32:04.816Z,671.10
2022-08-24T09:33:05.101Z,670.32
2022-08-24T09:34:04.797Z,669.91
2022-08-24T09:35:04.805Z,668.82
2022-08-24T09:36:04.766Z,667.99
2022-08-24T09:37:04.749Z,667.52
2022-08-24T09:38:04.742Z,667.45
2022-08-24T09:39:04.759Z,667.48
2022-08-24T09:40:04.782Z,668.22
2022-08-24T09:41:04.843Z,667.87
2022-08-24T09:42:04.710Z,666.90
2022-08-24T09:43:05.062Z,666.46
2022-08-24T09:44:04.702Z,665.29
2022-08-24T09:45:04.683Z,664.65
2022-08-24T09:46:04.729Z,665.29
2022-08-24T09:47:04.663Z,664.98
2022-08-24T09:48:04.675Z,664.61
2022-08-24T09:49:04.627Z,664.14
2022-08-24T09:50:04.908Z,663.95
2022-08-24T09:51:04.602Z,666.09
2022-08-24T09:52:04.593Z,665.40
2022-08-24T09:53:04.814Z,664.83
2022-08-24T09:54:04.591Z,664.96
2022-08-24T09:55:04.564Z,665.01
2022-08-24T09:56:04.577Z,664.75
2022-08-24T09:57:12.271Z,664.30
2022-08-24T09:58:04.569Z,663.27
2022-08-24T09:59:04.532Z,663.49
2022-08-24T10:00:04.508Z,664.46
2022-08-24T10:01:04.562Z,664.83
2022-08-24T10:02:04.532Z,664.37
2022-08-24T10:03:04.545Z,664.60
2022-08-24T10:04:04.588Z,663.99
2022-08-24T10:05:04.613Z,663.15
2022-08-24T10:06:04.623Z,662.58
2022-08-24T10:07:04.457Z,663.12
2022-08-24T10:08:04.523Z,663.27
2022-08-24T10:09:04.444Z,663.04
2022-08-24T10:10:04.416Z,662.15
2022-08-24T10:11:04.398Z,662.11
2022-08-24T10:12:04.383Z,662.85
2022-08-24T10:13:04.375Z,662.81
2022-08-24T10:14:04.388Z,663.52
2022-08-24T10:15:04.475Z,664.98
2022-08-24T10:16:04.481Z,664.99
2022-08-24T10:17:04.381Z,664.20
2022-08-24T10:18:04.482Z,663.89
2022-08-24T10:19:04.329Z,663.94
2022-08-24T10:20:04.323Z,663.68
2022-08-24T10:21:04.460Z,663.70
2022-08-24T10:22:04.291Z,663.71
2022-08-24T10:23:04.289Z,663.46
2022-08-24T10:24:04.261Z,663.94
2022-08-24T10:25:04.251Z,663.71
2022-08-24T10:26:04.271Z,663.96
2022-08-24T10:27:04.231Z,664.39
2022-08-24T10:28:04.497Z,665.28
2022-08-24T10:29:04.219Z,664.51
2022-08-24T10:30:04.574Z,663.69
2022-08-24T10:31:04.232Z,663.31
2022-08-24T10:32:04.335Z,662.64
2022-08-24T10:33:04.165Z,661.92
2022-08-24T10:34:04.180Z,661.40
2022-08-24T10:35:04.148Z,662.38
2022-08-24T10:36:04.476Z,663.01
2022-08-24T10:37:04.144Z,663.02
2022-08-24T10:38:04.407Z,662.46
2022-08-24T10:39:04.103Z,662.25
2022-08-24T10:40:06.222Z,661.48
2022-08-24T10:41:04.091Z,661.31
2022-08-24T10:42:04.102Z,661.06
2022-08-24T10:43:04.101Z,661.28
2022-08-24T10:44:04.056Z,661.32
2022-08-24T10:45:04.127Z,661.38
2022-08-24T10:46:04.095Z,660.84
2022-08-24T10:47:04.084Z,660.48
2022-08-24T10:48:04.341Z,660.08
2022-08-24T10:49:04.176Z,659.36
2022-08-24T10:50:04.134Z,659.13
2022-08-24T10:51:04.010Z,659.04
2022-08-24T10:52:04.028Z,659.40
2022-08-24T10:53:04.007Z,659.10
2022-08-24T10:54:03.995Z,659.17
2022-08-24T10:55:03.981Z,659.73
2022-08-24T10:56:03.945Z,659.50
2022-08-24T10:57:03.990Z,659.82
2022-08-24T10:58:04.063Z,661.19
2022-08-24T10:59:03.903Z,662.45
2022-08-24T11:00:04.307Z,662.21
2022-08-24T11:01:03.999Z,661.49
2022-08-24T11:02:08.434Z,660.92
2022-08-24T11:03:03.860Z,661.29
2022-08-24T11:04:03.883Z,661.09
2022-08-24T11:06:12.361Z,660.00
2022-08-24T11:07:13.314Z,659.41
2022-08-24T11:08:13.293Z,659.48
2022-08-24T11:09:18.644Z,659.72
2022-08-24T11:10:13.361Z,659.86
2022-08-24T11:11:13.287Z,659.17
2022-08-24T11:12:13.277Z,658.69
2022-08-24T11:13:13.266Z,659.02
2022-08-24T11:14:13.276Z,659.69
2022-08-24T11:15:13.220Z,659.11
2022-08-24T11:16:13.349Z,658.72
2022-08-24T11:17:13.197Z,658.39
2022-08-24T11:18:13.201Z,658.63
2022-08-24T11:19:13.206Z,658.39
2022-08-24T11:20:13.219Z,657.99
2022-08-24T11:21:13.155Z,657.89
2022-08-24T11:22:13.143Z,657.80
2022-08-24T11:23:13.133Z,658.12
2022-08-24T11:24:13.139Z,657.66
2022-08-24T11:25:13.129Z,657.99
2022-08-24T11:26:13.100Z,657.96
2022-08-24T11:27:13.101Z,657.56
2022-08-24T11:28:13.087Z,657.58
2022-08-24T11:29:13.090Z,658.54
2022-08-24T11:30:13.110Z,658.93
2022-08-24T11:31:13.127Z,658.95
2022-08-24T11:32:13.143Z,659.70
2022-08-24T11:33:13.032Z,659.86
2022-08-24T11:34:13.024Z,659.59
2022-08-24T11:35:13.025Z,659.16
2022-08-24T11:36:13.025Z,658.36
2022-08-24T11:37:12.988Z,657.86
2022-08-24T11:38:13.000Z,657.85
2022-08-24T11:39:12.996Z,658.06
2022-08-24T11:40:13.045Z,659.09
2022-08-24T11:41:12.940Z,658.78
2022-08-24T11:42:12.943Z,658.29
2022-08-24T11:43:12.923Z,657.75
2022-08-24T11:44:12.942Z,657.06
2022-08-24T11:45:12.915Z,657.02
2022-08-24T11:46:12.938Z,658.01
2022-08-24T11:47:12.887Z,658.02
2022-08-24T11:48:12.873Z,657.30
2022-08-24T11:49:12.876Z,657.04
2022-08-24T11:50:12.872Z,656.56
2022-08-24T11:51:12.836Z,656.06
2022-08-24T11:52:12.825Z,656.36
2022-08-24T11:53:12.957Z,656.18
2022-08-24T11:54:12.808Z,656.89
2022-08-24T11:55:12.793Z,656.70
2022-08-24T11:56:14.492Z,656.67
2022-08-24T11:57:12.793Z,656.48
2022-08-24T11:58:12.779Z,656.61
2022-08-24T11:59:12.750Z,656.41
2022-08-24T12:00:12.740Z,657.43
2022-08-24T12:01:12.751Z,658.56
2022-08-24T12:02:12.896Z,658.02
2022-08-24T12:03:12.861Z,658.52
2022-08-24T12:04:12.729Z,658.14
2022-08-24T12:05:14.321Z,657.24
2022-08-24T12:06:12.689Z,655.96
2022-08-24T12:07:12.673Z,656.20
2022-08-24T12:08:12.658Z,656.90
2022-08-24T12:09:12.667Z,657.12
2022-08-24T12:10:12.642Z,656.64
2022-08-24T12:11:12.636Z,657.02
2022-08-24T12:12:12.612Z,656.64
2022-08-24T12:13:12.603Z,655.98
2022-08-24T12:14:12.631Z,655.92
2022-08-24T12:15:12.584Z,656.98
2022-08-24T12:16:12.589Z,658.34
2022-08-24T12:17:12.565Z,658.19
2022-08-24T12:18:12.559Z,658.98
2022-08-24T12:19:12.567Z,659.43
2022-08-24T12:20:12.535Z,659.15
2022-08-24T12:21:12.898Z,657.99
2022-08-24T12:22:12.515Z,657.81
2022-08-24T12:23:12.520Z,657.88
2022-08-24T12:24:12.489Z,657.08
2022-08-24T12:25:12.494Z,656.67
2022-08-24T12:26:12.474Z,656.37
2022-08-24T12:27:12.473Z,656.51
2022-08-24T12:28:12.449Z,656.30
2022-08-24T12:29:12.439Z,656.45
2022-08-24T12:30:12.484Z,656.52
2022-08-24T12:31:12.458Z,656.07
2022-08-24T12:32:12.410Z,655.72
2022-08-24T12:33:12.398Z,655.12
2022-08-24T12:34:12.381Z,654.68
2022-08-24T12:35:12.389Z,653.99
2022-08-24T12:36:12.386Z,653.82
2022-08-24T12:37:16.267Z,653.86
2022-08-24T12:38:12.351Z,653.78
2022-08-24T12:39:12.334Z,653.71
2022-08-24T12:40:12.426Z,654.77
2022-08-24T12:41:14.722Z,655.31
2022-08-24T12:42:15.835Z,655.49
2022-08-24T12:43:12.297Z,655.11
2022-08-24T12:44:12.281Z,654.71
2022-08-24T12:45:12.267Z,654.97
2022-08-24T12:46:12.310Z,655.55
2022-08-24T12:47:13.437Z,655.55
2022-08-24T12:48:12.333Z,655.39
2022-08-24T12:49:12.230Z,654.76
2022-08-24T12:50:12.217Z,654.41
2022-08-24T12:51:12.213Z,653.86
2022-08-24T12:52:12.203Z,653.94
2022-08-24T12:53:14.132Z,655.80
2022-08-24T12:54:12.182Z,656.90
2022-08-24T12:55:12.208Z,657.73
2022-08-24T12:56:12.176Z,657.87
2022-08-24T12:57:12.149Z,658.31
2022-08-24T12:59:12.139Z,657.98
2022-08-24T13:00:12.144Z,657.13
2022-08-24T13:01:12.198Z,656.43
2022-08-24T13:02:12.225Z,655.90
2022-08-24T13:03:12.093Z,655.67
2022-08-24T13:04:12.075Z,654.93
2022-08-24T13:05:12.093Z,655.00
2022-08-24T13:07:21.016Z,654.89
2022-08-24T13:08:22.006Z,654.19
2022-08-24T13:09:22.000Z,653.95
2022-08-24T13:10:22.000Z,654.44
2022-08-24T13:11:21.973Z,655.14
2022-08-24T13:12:24.291Z,654.82